Time;durP1;ratioP1;P1;durP2;ratioP2;P2;SDS_P1;SDS_P2;PMS_P1;PMS_P2;Temp;Humidity;BMP_temperature;BMP_pressure;BME280_temperature;BME280_humidity;BME280_pressure;Samples;Min_cycle;Max_cycle;Signal;HPM_P1;HPM_P2
2023/09/10 00:02:37;;;;;;;12.83;11.63;;;21.20;99.90;;;;;;5002991;28;20524;-79
2023/09/10 00:05:41;;;;;;;13.67;12.37;;;21.20;99.90;;;;;;5091976;28;20836;-79
2023/09/10 00:08:33;;;;;;;13.23;12.13;;;21.20;99.90;;;;;;5086744;28;20546;-79
2023/09/10 00:15:11;;;;;;;15.70;14.23;;;21.10;99.90;;;;;;5087171;28;20494;-79
2023/09/10 00:22:33;;;;;;;15.67;14.27;;;21.00;99.90;;;;;;5008696;28;20506;-79
2023/09/10 00:25:50;;;;;;;14.73;13.33;;;21.00;99.90;;;;;;5041123;28;20468;-81
2023/09/10 00:28:52;;;;;;;15.03;13.70;;;20.90;99.90;;;;;;5077285;28;20448;-79
2023/09/10 00:35:19;;;;;;;15.23;13.83;;;20.90;99.90;;;;;;5093780;28;20448;-78
2023/09/10 00:38:22;;;;;;;15.10;13.70;;;20.90;99.90;;;;;;5097026;28;20458;-80
2023/09/10 00:41:21;;;;;;;14.40;13.10;;;20.80;99.90;;;;;;5096157;28;20447;-79
2023/09/10 00:44:15;;;;;;;15.17;13.97;;;20.80;99.90;;;;;;5081718;28;20518;-80
2023/09/10 00:47:05;;;;;;;15.43;13.93;;;20.80;99.90;;;;;;5082830;28;20544;-80
2023/09/10 00:52:44;;;;;;;15.33;13.80;;;20.80;99.90;;;;;;5027201;28;20421;-78
2023/09/10 00:55:59;;;;;;;14.80;13.57;;;20.70;99.90;;;;;;5082662;28;21134;-80
2023/09/10 01:01:32;;;;;;;15.20;13.70;;;20.60;99.90;;;;;;5081856;28;20463;-79
2023/09/10 01:04:20;;;;;;;15.13;13.93;;;20.70;99.90;;;;;;5105121;28;20497;-77
2023/09/10 01:07:17;;;;;;;15.30;13.87;;;20.60;99.90;;;;;;5105377;28;20456;-81
2023/09/10 01:10:14;;;;;;;16.60;14.73;;;20.60;99.90;;;;;;5107203;28;21042;-80
2023/09/10 01:13:37;;;;;;;15.57;14.10;;;20.60;99.90;;;;;;5107264;28;20456;-80
2023/09/10 01:16:55;;;;;;;14.80;13.20;;;20.60;99.90;;;;;;5086625;28;20460;-80
2023/09/10 01:20:13;;;;;;;15.73;14.23;;;20.50;99.90;;;;;;5104776;28;20448;-79
2023/09/10 01:23:37;;;;;;;15.20;13.63;;;20.40;99.90;;;;;;5104795;28;20444;-80
2023/09/10 01:26:42;;;;;;;14.83;13.40;;;20.40;99.90;;;;;;5021893;28;20993;-78
2023/09/10 01:29:29;;;;;;;14.87;13.67;;;20.40;99.90;;;;;;5103603;28;20505;-80
2023/09/10 01:32:19;;;;;;;15.63;14.03;;;20.30;99.90;;;;;;5102538;28;20480;-78
2023/09/10 01:35:23;;;;;;;15.63;13.80;;;20.30;99.90;;;;;;5103509;28;20482;-80
2023/09/10 01:38:18;;;;;;;15.77;14.47;;;20.30;99.90;;;;;;5104633;28;20477;-80
2023/09/10 01:40:59;;;;;;;15.53;14.07;;;20.30;99.90;;;;;;5104705;28;20448;-80
2023/09/10 01:43:52;;;;;;;15.63;14.13;;;20.20;99.90;;;;;;5104581;28;20585;-80
2023/09/10 01:46:53;;;;;;;16.00;14.50;;;20.20;99.90;;;;;;5105514;28;20501;-79
2023/09/10 01:50:03;;;;;;;15.83;14.27;;;20.10;99.90;;;;;;5108522;28;20462;-79
2023/09/10 01:53:00;;;;;;;15.00;13.50;;;20.10;99.90;;;;;;5100383;28;20444;-79
2023/09/10 01:56:25;;;;;;;;;;;;;;;;;;;;;
2023/09/10 02:09:25;;;;;;;17.37;15.67;;;20.00;99.90;;;;;;5080318;28;20509;-79
2023/09/10 02:12:20;;;;;;;17.13;15.67;;;20.00;99.90;;;;;;5108145;28;20479;-78
2023/09/10 02:22:16;;;;;;;16.87;15.07;;;20.00;99.90;;;;;;5107971;28;20431;-80
2023/09/10 02:31:55;;;;;;;17.03;15.33;;;19.90;99.90;;;;;;5003875;28;20514;-78
2023/09/10 02:42:05;;;;;;;;;;;;;;;;;;;;;
2023/09/10 02:58:47;;;;;;;;;;;;;;;;;;;;;
2023/09/10 03:08:41;;;;;;;18.80;16.83;;;19.50;99.90;;;;;;5100715;28;20450;-80
2023/09/10 03:11:52;;;;;;;18.27;16.57;;;19.40;99.90;;;;;;5095202;28;20475;-79
2023/09/10 03:15:08;;;;;;;17.80;16.27;;;19.40;99.90;;;;;;5051368;28;21001;-79
2023/09/10 03:21:36;;;;;;;19.40;17.63;;;19.40;99.90;;;;;;4943000;28;20434;-80
2023/09/10 03:25:01;;;;;;;19.87;17.57;;;19.30;99.90;;;;;;5098395;28;20492;-80
2023/09/10 03:28:32;;;;;;;;;;;;;;;;;;;;;
2023/09/10 03:31:38;;;;;;;18.27;16.67;;;19.20;99.90;;;;;;5043312;28;20482;-81
2023/09/10 03:34:39;;;;;;;20.00;18.00;;;19.20;99.90;;;;;;5095257;28;20517;-80
2023/09/10 03:54:11;;;;;;;18.30;16.80;;;19.10;99.90;;;;;;5094636;28;20450;-80
2023/09/10 03:57:51;;;;;;;18.60;16.90;;;19.10;99.90;;;;;;5096613;28;20466;-80
2023/09/10 04:07:23;;;;;;;17.33;15.93;;;18.90;99.90;;;;;;5075936;28;20483;-81
2023/09/10 04:10:27;;;;;;;18.50;16.80;;;18.90;99.90;;;;;;5096766;28;21098;-80
2023/09/10 04:13:19;;;;;;;18.60;16.80;;;18.90;99.90;;;;;;5101506;28;20485;-80
2023/09/10 04:16:04;;;;;;;18.53;16.70;;;18.90;99.90;;;;;;5098720;28;20452;-80
2023/09/10 04:19:10;;;;;;;17.20;15.73;;;18.90;99.90;;;;;;5103233;28;20444;-79
2023/09/10 04:33:18;;;;;;;;;;;;;;;;;;;;;
2023/09/10 04:39:48;;;;;;;16.37;14.87;;;18.80;99.90;;;;;;4907815;29;20540;-80
2023/09/10 04:52:52;;;;;;;18.63;16.90;;;18.70;99.90;;;;;;4958113;28;20501;-79
2023/09/10 04:55:38;;;;;;;19.37;17.20;;;18.70;99.90;;;;;;4982604;28;20564;-80
2023/09/10 04:58:29;;;;;;;17.20;15.70;;;18.60;99.90;;;;;;5061362;28;20882;-80
2023/09/10 05:01:06;;;;;;;18.17;16.47;;;18.60;99.90;;;;;;5103499;28;20844;-81
2023/09/10 05:03:45;;;;;;;18.67;16.97;;;18.70;99.90;;;;;;5100350;28;20493;-80
2023/09/10 05:06:37;;;;;;;18.57;16.80;;;18.70;99.90;;;;;;5101240;28;20451;-80
2023/09/10 05:09:24;;;;;;;17.03;15.63;;;18.60;99.90;;;;;;5102653;28;20516;-81
2023/09/10 05:14:58;;;;;;;19.13;17.30;;;18.60;99.90;;;;;;5100888;28;20963;-80
2023/09/10 05:17:40;;;;;;;19.20;17.40;;;18.70;99.90;;;;;;5103505;28;20444;-79
2023/09/10 05:20:24;;;;;;;19.20;17.40;;;18.70;99.90;;;;;;5105431;28;20478;-80
2023/09/10 05:23:10;;;;;;;17.77;16.20;;;18.60;99.90;;;;;;5106950;28;20465;-79
2023/09/10 05:26:16;;;;;;;23.00;18.07;;;18.70;99.90;;;;;;5107198;28;20509;-79
2023/09/10 05:29:20;;;;;;;18.93;17.13;;;18.70;99.90;;;;;;5099209;28;20528;-79
2023/09/10 05:32:13;;;;;;;19.83;18.03;;;18.60;99.90;;;;;;5091945;28;20479;-79
2023/09/10 05:35:03;;;;;;;19.77;17.67;;;18.70;99.90;;;;;;5039429;28;20471;-79
2023/09/10 05:37:40;;;;;;;19.50;17.70;;;18.70;99.90;;;;;;5038769;28;20451;-79
2023/09/10 05:40:21;;;;;;;19.70;17.97;;;18.70;99.90;;;;;;5039330;28;20454;-80
2023/09/10 05:43:13;;;;;;;18.90;17.30;;;18.80;99.90;;;;;;5038381;28;20498;-79
2023/09/10 05:46:13;;;;;;;22.33;18.73;;;18.80;99.90;;;;;;5070731;28;20940;-79
2023/09/10 05:49:13;;;;;;;20.60;18.70;;;18.80;99.90;;;;;;5105126;28;20478;-80
2023/09/10 05:51:54;;;;;;;20.77;18.87;;;18.80;99.90;;;;;;5021681;28;20502;-81
2023/09/10 05:54:32;;;;;;;28.13;25.30;;;18.90;99.90;;;;;;5021038;28;20494;-79
2023/09/10 05:57:34;;;;;;;236.43;173.17;;;18.90;99.90;;;;;;5084699;28;20822;-81
2023/09/10 06:00:18;;;;;;;22.73;20.63;;;18.90;99.90;;;;;;5097579;28;20477;-79
2023/09/10 06:03:09;;;;;;;;;;;;;;;;;;;;;
2023/09/10 06:09:11;;;;;;;22.03;20.10;;;18.90;99.90;;;;;;5078002;28;20447;-80
2023/09/10 06:12:05;;;;;;;23.50;21.27;;;19.00;99.90;;;;;;5097771;28;20482;-79
2023/09/10 06:18:33;;;;;;;21.00;19.10;;;19.10;99.90;;;;;;5080989;28;20455;-80
2023/09/10 06:21:33;;;;;;;20.57;18.70;;;19.30;99.90;;;;;;5100462;28;20444;-80
2023/09/10 06:24:35;;;;;;;22.10;20.20;;;19.40;99.90;;;;;;5103165;28;20985;-80
2023/09/10 06:27:33;;;;;;;20.90;18.90;;;19.50;99.90;;;;;;5098475;28;20471;-79
2023/09/10 06:30:27;;;;;;;22.40;20.40;;;19.60;99.90;;;;;;5099430;28;20448;-80
2023/09/10 06:33:27;;;;;;;;;;;;;;;;;;;;;
2023/09/10 06:36:22;;;;;;;22.80;20.83;;;19.70;99.90;;;;;;5099274;28;20420;-79
2023/09/10 06:45:32;;;;;;;20.60;19.00;;;19.90;99.90;;;;;;5085495;28;20848;-81
2023/09/10 06:52:25;;;;;;;19.93;18.37;;;20.10;99.90;;;;;;5100597;28;20504;-80
2023/09/10 06:55:21;;;;;;;20.50;18.53;;;20.10;99.90;;;;;;5106857;28;20467;-80
2023/09/10 06:58:33;;;;;;;;;;;;;;;;;;;;;
2023/09/10 07:01:26;;;;;;;19.07;17.27;;;20.30;99.90;;;;;;5060607;28;20437;-80
2023/09/10 07:04:28;;;;;;;19.97;17.93;;;20.40;99.90;;;;;;5074444;28;20548;-79
2023/09/10 07:07:27;;;;;;;18.67;17.00;;;20.50;99.90;;;;;;5102989;28;20448;-78
2023/09/10 07:16:31;;;;;;;17.57;16.00;;;20.80;99.90;;;;;;5054622;28;20424;-81
2023/09/10 07:26:32;;;;;;;18.43;16.97;;;21.10;99.90;;;;;;5100935;28;21259;-79
2023/09/10 07:29:47;;;;;;;17.30;15.67;;;21.20;99.90;;;;;;5101316;28;20443;-81
2023/09/10 07:36:24;;;;;;;16.83;15.33;;;21.40;99.90;;;;;;5089761;28;20456;-80
2023/09/10 07:43:17;;;;;;;15.87;14.43;;;21.80;99.90;;;;;;5098129;28;20850;-79
2023/09/10 07:46:21;;;;;;;17.83;16.07;;;22.00;99.90;;;;;;4997342;28;20448;-80
2023/09/10 07:49:14;;;;;;;16.80;15.23;;;22.00;99.90;;;;;;5099659;28;20523;-79
2023/09/10 07:51:53;;;;;;;16.30;14.93;;;22.10;99.90;;;;;;5101659;28;20469;-80
2023/09/10 07:57:58;;;;;;;15.67;13.90;;;22.40;99.90;;;;;;5041066;28;20557;-79
2023/09/10 08:04:12;;;;;;;16.03;14.43;;;22.80;99.90;;;;;;5068669;28;20507;-79
2023/09/10 08:07:03;;;;;;;16.73;15.23;;;23.00;99.90;;;;;;5080256;28;20548;-78
2023/09/10 08:12:37;;;;;;;15.03;13.83;;;23.60;99.90;;;;;;5082797;28;20469;-80
2023/09/10 08:15:30;;;;;;;15.77;14.37;;;23.20;99.90;;;;;;5092024;28;20464;-80
2023/09/10 08:21:42;;;;;;;13.67;12.40;;;23.90;99.90;;;;;;5083440;28;20445;-79
2023/09/10 08:27:52;;;;;;;14.80;13.27;;;24.30;99.90;;;;;;5021542;28;20439;-82
2023/09/10 08:33:30;;;;;;;13.80;12.43;;;24.80;99.90;;;;;;5071751;28;20479;-79
2023/09/10 08:37:02;;;;;;;13.93;12.70;;;25.00;99.90;;;;;;5093972;28;20469;-80
2023/09/10 08:39:54;;;;;;;15.00;13.10;;;25.30;99.90;;;;;;5048761;28;20490;-80
2023/09/10 08:42:44;;;;;;;14.37;12.97;;;25.40;99.90;;;;;;5112744;28;20526;-78
2023/09/10 08:45:23;;;;;;;13.37;12.07;;;25.70;99.90;;;;;;5116892;28;20490;-80
2023/09/10 08:48:09;;;;;;;13.67;12.37;;;25.90;99.90;;;;;;5117055;28;20429;-80
2023/09/10 08:50:45;;;;;;;12.87;11.57;;;26.00;99.90;;;;;;5115171;28;20420;-78
2023/09/10 08:53:27;;;;;;;13.47;12.37;;;26.20;99.90;;;;;;5109122;28;20475;-82
2023/09/10 08:56:11;;;;;;;13.60;12.40;;;26.60;99.90;;;;;;5108517;28;20450;-80
2023/09/10 08:59:13;;;;;;;12.60;11.43;;;26.70;99.90;;;;;;5107103;28;20459;-81
2023/09/10 09:01:58;;;;;;;12.23;11.23;;;27.00;99.90;;;;;;5111485;28;20520;-79
2023/09/10 09:04:38;;;;;;;13.03;11.83;;;27.20;99.90;;;;;;5112952;28;20463;-80
2023/09/10 09:07:17;;;;;;;12.13;10.93;;;27.40;99.90;;;;;;5111204;28;20636;-82
2023/09/10 09:10:41;;;;;;;11.93;10.93;;;27.50;99.90;;;;;;5106838;28;20458;-81
2023/09/10 09:14:07;;;;;;;11.53;10.43;;;27.60;99.90;;;;;;5059459;28;20480;-80
2023/09/10 09:17:28;;;;;;;11.87;10.70;;;27.80;99.90;;;;;;5104620;28;20455;-80
2023/09/10 09:24:08;;;;;;;11.90;10.73;;;28.20;99.90;;;;;;5091973;28;20413;-81
2023/09/10 09:47:43;;;;;;;11.30;10.27;;;29.90;99.90;;;;;;5027571;28;20423;-79
2023/09/10 09:50:57;;;;;;;10.90;10.00;;;30.20;99.90;;;;;;5105753;28;20473;-80
2023/09/10 09:53:59;;;;;;;10.30;9.40;;;30.30;99.90;;;;;;5107857;28;20475;-82
2023/09/10 09:59:35;;;;;;;9.80;9.00;;;;;;;;;;5107478;28;20440;-80
2023/09/10 10:05:43;;;;;;;10.23;9.23;;;31.30;99.90;;;;;;5053580;28;20513;-81
2023/09/10 10:08:30;;;;;;;10.50;9.70;;;31.30;99.90;;;;;;5103919;28;20517;-81
2023/09/10 10:11:45;;;;;;;10.87;9.97;;;31.90;99.90;;;;;;5102498;28;20447;-81
2023/09/10 10:14:30;;;;;;;10.60;9.57;;;31.80;99.90;;;;;;5100521;28;20528;-80
2023/09/10 10:17:09;;;;;;;9.73;8.93;;;31.50;99.90;;;;;;5099861;28;20452;-81
2023/09/10 10:19:45;;;;;;;8.33;7.63;;;31.80;99.90;;;;;;5102418;28;20444;-80
2023/09/10 10:22:56;;;;;;;9.40;8.70;;;31.90;99.90;;;;;;5107483;28;20413;-81
2023/09/10 10:28:28;;;;;;;8.87;8.03;;;32.10;99.90;;;;;;5092062;28;20440;-80
2023/09/10 10:31:31;;;;;;;8.77;8.07;;;32.40;99.90;;;;;;5105984;28;20468;-81
2023/09/10 10:34:15;;;;;;;8.80;8.10;;;32.90;99.90;;;;;;5104122;28;20505;-81
2023/09/10 10:37:15;;;;;;;8.60;8.00;;;33.10;99.90;;;;;;5105298;28;20808;-81
2023/09/10 10:43:38;;;;;;;9.20;8.40;;;33.30;99.90;;;;;;5105113;28;20443;-79
2023/09/10 10:46:21;;;;;;;8.10;7.50;;;33.50;99.90;;;;;;5107061;28;20564;-81
2023/09/10 10:52:57;;;;;;;;;;;;;;;;;;;;;
2023/09/10 10:56:04;;;;;;;9.43;8.57;;;33.50;99.90;;;;;;5107433;28;20450;-80
2023/09/10 11:02:54;;;;;;;;;;;;;;;;;;;;;
2023/09/10 11:09:16;;;;;;;8.70;7.90;;;33.10;99.00;;;;;;5091129;28;20438;-82
2023/09/10 11:16:11;;;;;;;9.33;8.33;;;33.80;98.50;;;;;;5091599;28;20478;-78
2023/09/10 12:00:35;;;;;;;9.57;8.67;;;;;;;;;;4910189;29;20528;-79
2023/09/10 12:03:54;;;;;;;;;;;;;;;;;;;;;
2023/09/10 12:06:59;;;;;;;;;;;;;;;;;;;;;
2023/09/10 12:19:55;;;;;;;8.60;7.90;;;34.40;94.00;;;;;;4899778;29;20482;-78
2023/09/10 12:23:33;;;;;;;8.40;7.77;;;33.70;93.90;;;;;;4967538;29;20425;-83
2023/09/10 12:26:43;;;;;;;8.37;7.67;;;33.70;94.30;;;;;;4970099;28;20465;-81
2023/09/10 12:29:26;;;;;;;8.20;7.70;;;34.40;92.40;;;;;;4983697;28;20455;-81
2023/09/10 12:32:02;;;;;;;8.93;8.17;;;34.50;92.30;;;;;;5102888;28;20452;-80
2023/09/10 12:34:40;;;;;;;7.60;7.00;;;34.60;91.50;;;;;;5101325;28;20479;-84
2023/09/10 12:37:24;;;;;;;7.80;7.20;;;34.70;90.50;;;;;;5102853;28;20458;-81
2023/09/10 12:40:32;;;;;;;8.17;6.77;;;34.70;90.80;;;;;;5106852;28;20451;-81
2023/09/10 12:43:27;;;;;;;8.90;8.10;;;35.10;90.00;;;;;;5107655;28;20447;-80
2023/09/10 12:48:52;;;;;;;12.67;7.90;;;35.20;89.50;;;;;;5104511;28;20443;-81
2023/09/10 12:51:40;;;;;;;7.03;6.60;;;34.60;90.10;;;;;;5104088;28;20467;-83
2023/09/10 12:54:23;;;;;;;7.70;7.10;;;35.10;89.30;;;;;;5104975;28;20490;-81
2023/09/10 12:57:30;;;;;;;7.80;7.20;;;35.70;85.60;;;;;;5107079;28;20463;-81
2023/09/10 13:00:22;;;;;;;7.43;6.73;;;35.70;85.70;;;;;;5098721;28;20500;-80
2023/09/10 13:06:07;;;;;;;6.70;6.30;;;35.50;86.10;;;;;;5089921;28;20825;-82
2023/09/10 13:08:57;;;;;;;7.57;6.83;;;35.90;84.40;;;;;;5107767;28;20460;-82
2023/09/10 13:11:44;;;;;;;7.03;6.40;;;35.50;83.00;;;;;;5108319;28;20448;-82
2023/09/10 13:17:22;;;;;;;7.20;6.60;;;34.80;84.20;;;;;;5096755;28;20444;-81
2023/09/10 13:19:58;;;;;;;7.03;6.30;;;35.60;81.50;;;;;;5108301;28;20443;-79
2023/09/10 13:22:59;;;;;;;7.17;6.53;;;35.50;81.00;;;;;;5107982;28;20408;-81
2023/09/10 13:25:51;;;;;;;6.77;6.27;;;35.60;80.90;;;;;;5107743;28;20550;-80
2023/09/10 13:28:34;;;;;;;9.90;7.30;;;35.40;80.80;;;;;;5105568;28;20440;-81
2023/09/10 13:31:28;;;;;;;7.40;6.70;;;36.10;80.00;;;;;;5108041;28;20443;-79
2023/09/10 13:34:06;;;;;;;7.23;6.63;;;35.90;79.60;;;;;;5107046;28;20479;-81
2023/09/10 13:36:59;;;;;;;6.47;5.90;;;35.70;80.90;;;;;;5107765;28;20458;-80
2023/09/10 13:39:41;;;;;;;7.87;6.10;;;35.10;80.10;;;;;;5104111;28;20436;-80
2023/09/10 13:42:15;;;;;;;6.70;6.10;;;35.20;80.50;;;;;;5106213;28;20524;-81
2023/09/10 13:45:00;;;;;;;7.13;6.63;;;35.30;80.10;;;;;;5110251;28;20459;-80
2023/09/10 13:47:40;;;;;;;6.50;5.90;;;;;;;;;;5106517;28;20511;-79
2023/09/10 13:50:12;;;;;;;7.17;6.57;;;;;;;;;;5105075;28;20440;-80
2023/09/10 13:52:55;;;;;;;7.27;6.07;;;36.30;76.90;;;;;;5104683;28;20936;-79
2023/09/10 13:55:39;;;;;;;7.50;6.50;;;36.20;77.00;;;;;;5105455;28;20483;-83
2023/09/10 13:58:19;;;;;;;7.73;6.97;;;36.40;76.60;;;;;;5105740;28;20506;-81
2023/09/10 14:01:01;;;;;;;6.60;6.00;;;36.70;75.90;;;;;;5105145;28;20454;-80
2023/09/10 14:03:50;;;;;;;6.13;5.63;;;36.30;75.00;;;;;;5104346;28;20496;-81
2023/09/10 14:06:34;;;;;;;7.60;6.40;;;36.20;75.30;;;;;;5098962;28;20435;-82
2023/09/10 14:09:15;;;;;;;6.53;6.03;;;36.10;75.50;;;;;;5103859;28;20454;-82
2023/09/10 14:14:52;;;;;;;7.30;6.50;;;36.20;74.40;;;;;;5105148;28;20471;-81
2023/09/10 14:17:45;;;;;;;8.37;6.87;;;36.20;74.00;;;;;;5105232;28;20437;-82
2023/09/10 14:20:38;;;;;;;8.63;6.10;;;36.20;74.40;;;;;;5106106;28;20631;-80
2023/09/10 14:23:17;;;;;;;7.00;6.30;;;35.40;75.80;;;;;;5107676;28;20444;-81
2023/09/10 14:25:52;;;;;;;7.43;6.80;;;35.70;74.90;;;;;;5108581;28;20443;-80
2023/09/10 14:32:15;;;;;;;6.87;6.27;;;35.90;74.90;;;;;;4960491;28;20462;-80
2023/09/10 14:38:48;;;;;;;7.77;6.67;;;35.80;75.10;;;;;;5099486;28;20471;-82
2023/09/10 14:41:23;;;;;;;6.73;6.23;;;36.10;74.40;;;;;;5061171;28;20813;-82
2023/09/10 14:44:50;;;;;;;;;;;;;;;;;;;;;
2023/09/10 14:47:34;;;;;;;6.80;6.30;;;36.20;73.40;;;;;;5004041;28;20451;-80
2023/09/10 14:54:39;;;;;;;;;;;;;;;;;;;;;
2023/09/10 15:25:29;;;;;;;6.80;6.30;;;34.80;76.80;;;;;;4860217;29;20484;-81
2023/09/10 15:31:44;;;;;;;7.00;6.50;;;34.50;76.30;;;;;;4906096;28;20546;-77
2023/09/10 15:35:02;;;;;;;7.33;6.37;;;34.00;77.50;;;;;;4997121;28;20476;-79
2023/09/10 15:38:24;;;;;;;7.20;6.50;;;34.80;76.70;;;;;;4974238;28;20483;-81
2023/09/10 15:48:35;;;;;;;7.13;6.37;;;35.10;75.40;;;;;;4957033;28;20443;-80
2023/09/10 15:54:13;;;;;;;7.17;6.60;;;35.10;75.40;;;;;;5069272;28;20477;-79
2023/09/10 15:57:18;;;;;;;6.60;6.10;;;35.10;74.50;;;;;;5070546;28;20445;-80
2023/09/10 16:00:06;;;;;;;9.23;6.40;;;35.10;75.20;;;;;;5060720;28;20454;-80
2023/09/10 16:03:41;;;;;;;6.80;6.20;;;35.10;75.00;;;;;;5071848;28;20851;-81
2023/09/10 16:06:41;;;;;;;7.00;6.43;;;34.60;76.60;;;;;;5070916;28;20437;-80
2023/09/10 16:13:10;;;;;;;;;;;;;;;;;;;;;
2023/09/10 16:15:59;;;;;;;7.80;6.67;;;35.20;74.10;;;;;;5033037;28;20487;-81
2023/09/10 16:19:19;;;;;;;7.73;7.00;;;35.20;74.80;;;;;;5030460;28;20444;-83
2023/09/10 16:49:18;;;;;;;7.90;7.30;;;32.50;81.30;;;;;;5060203;28;20453;-81
2023/09/10 16:54:54;;;;;;;8.13;7.53;;;32.50;82.50;;;;;;5066271;28;20477;-83
2023/09/10 16:57:49;;;;;;;9.50;7.63;;;32.20;83.10;;;;;;5068391;28;20619;-80
2023/09/10 17:00:38;;;;;;;9.07;8.17;;;32.10;83.60;;;;;;5073360;28;20452;-84
2023/09/10 17:03:12;;;;;;;9.03;8.23;;;32.10;84.10;;;;;;5072149;28;20429;-83
2023/09/10 17:05:59;;;;;;;9.27;8.50;;;31.90;84.80;;;;;;5071090;28;20525;-79
2023/09/10 17:08:39;;;;;;;9.60;8.80;;;31.90;84.90;;;;;;5071668;28;20473;-81
2023/09/10 17:11:29;;;;;;;8.40;7.70;;;31.80;85.70;;;;;;5072709;28;20425;-81
2023/09/10 17:20:55;;;;;;;9.10;7.53;;;31.40;87.00;;;;;;5068149;28;20467;-83
2023/09/10 17:23:47;;;;;;;8.87;8.00;;;31.20;87.20;;;;;;5064160;28;20473;-80
2023/09/10 17:26:23;;;;;;;9.37;8.47;;;31.30;88.60;;;;;;5066175;28;20503;-80
2023/09/10 17:28:56;;;;;;;8.53;7.90;;;30.90;88.90;;;;;;5067699;28;20444;-80
2023/09/10 17:31:39;;;;;;;9.20;8.33;;;30.80;89.40;;;;;;5065648;28;20454;-80
2023/09/10 17:34:26;;;;;;;18.33;13.80;;;30.70;89.80;;;;;;5064929;28;20556;-80
2023/09/10 17:37:22;;;;;;;11.40;8.43;;;30.60;90.60;;;;;;5059692;28;20768;-81
2023/09/10 17:40:17;;;;;;;10.20;9.17;;;30.50;90.60;;;;;;5061229;28;20445;-82
2023/09/10 17:43:03;;;;;;;10.40;9.50;;;30.20;91.20;;;;;;5060435;28;20537;-81
2023/09/10 17:45:44;;;;;;;9.90;9.10;;;30.10;91.70;;;;;;5059892;28;20500;-81
2023/09/10 17:48:32;;;;;;;10.63;9.63;;;30.00;92.00;;;;;;5061684;28;20449;-81
2023/09/10 17:51:10;;;;;;;9.20;8.50;;;29.80;92.50;;;;;;5044183;28;20441;-80
2023/09/10 17:53:46;;;;;;;11.13;8.53;;;29.70;92.70;;;;;;5061614;28;20480;-82
2023/09/10 18:13:34;;;;;;;10.00;9.10;;;28.80;94.70;;;;;;4916666;28;20445;-81
2023/09/10 18:16:19;;;;;;;9.83;8.80;;;28.70;95.20;;;;;;4997550;28;20478;-81
2023/09/10 18:19:00;;;;;;;9.47;8.63;;;28.60;95.50;;;;;;5046208;28;20549;-82
2023/09/10 18:22:02;;;;;;;10.07;9.27;;;28.50;95.60;;;;;;5045390;28;20538;-82
2023/09/10 18:24:46;;;;;;;10.03;9.03;;;28.40;96.10;;;;;;5045566;28;20466;-81
2023/09/10 18:27:31;;;;;;;9.20;8.40;;;28.30;96.40;;;;;;5045662;28;20471;-80
2023/09/10 18:30:28;;;;;;;8.57;7.77;;;28.20;96.60;;;;;;5047787;28;20509;-84
2023/09/10 18:36:35;;;;;;;11.00;9.63;;;28.00;97.30;;;;;;5042020;28;21126;-81
2023/09/10 18:39:08;;;;;;;10.10;9.20;;;27.80;97.80;;;;;;5039963;28;20474;-82
2023/09/10 18:42:12;;;;;;;9.50;8.70;;;27.60;98.20;;;;;;5044008;28;20431;-82
2023/09/10 18:44:52;;;;;;;9.37;8.57;;;27.50;98.60;;;;;;4949432;28;20466;-80
2023/09/10 18:54:55;;;;;;;;;;;;;;;;;;;;;
2023/09/10 18:57:40;;;;;;;9.73;8.87;;;27.30;99.30;;;;;;5042272;28;20442;-80
2023/09/10 19:00:27;;;;;;;10.53;9.63;;;27.10;99.70;;;;;;5040780;28;20454;-80
2023/09/10 19:03:14;;;;;;;10.10;9.20;;;27.00;99.90;;;;;;5068958;28;20455;-81
2023/09/10 19:05:58;;;;;;;11.23;10.27;;;26.80;99.90;;;;;;5081212;28;20790;-81
2023/09/10 19:08:40;;;;;;;10.07;9.17;;;26.80;99.90;;;;;;5065018;28;20456;-80
2023/09/10 19:11:23;;;;;;;11.30;10.20;;;26.60;99.90;;;;;;5082421;28;20531;-82
2023/09/10 19:13:59;;;;;;;10.23;9.33;;;26.60;99.90;;;;;;5085394;28;20469;-83
2023/09/10 19:19:29;;;;;;;;;;;;;;;;;;;;;
2023/09/10 19:22:24;;;;;;;10.57;9.73;;;26.40;99.90;;;;;;5080397;28;20519;-83
2023/09/10 19:25:08;;;;;;;10.87;9.97;;;26.20;99.90;;;;;;5080234;28;20465;-83
2023/09/10 19:28:02;;;;;;;10.37;9.40;;;26.10;99.90;;;;;;5076629;28;20444;-80
2023/09/10 19:30:46;;;;;;;10.83;9.93;;;26.10;99.90;;;;;;5079886;28;20445;-80
2023/09/10 19:33:56;;;;;;;11.97;10.97;;;25.90;99.90;;;;;;5078057;28;20448;-80
2023/09/10 19:37:01;;;;;;;11.33;10.43;;;25.80;99.90;;;;;;5078653;28;20507;-83
2023/09/10 19:40:01;;;;;;;11.80;10.50;;;25.80;99.90;;;;;;5078016;28;20971;-82
2023/09/10 19:42:40;;;;;;;10.20;9.30;;;25.70;99.90;;;;;;5079313;28;20452;-81
2023/09/10 19:45:27;;;;;;;10.20;9.20;;;25.70;99.90;;;;;;5078912;28;20459;-81
2023/09/10 19:48:08;;;;;;;10.77;9.67;;;25.60;99.90;;;;;;5082302;28;20445;-81
2023/09/10 19:51:12;;;;;;;10.83;9.67;;;25.50;99.90;;;;;;5085053;28;20528;-80
2023/09/10 19:57:07;;;;;;;10.80;9.90;;;25.30;99.90;;;;;;5076773;28;20533;-81
2023/09/10 19:59:58;;;;;;;10.37;9.53;;;25.20;99.90;;;;;;5088709;28;20497;-82
2023/09/10 20:02:48;;;;;;;11.43;10.40;;;25.20;99.90;;;;;;5078291;28;20442;-80
2023/09/10 20:08:12;;;;;;;11.23;10.37;;;25.00;99.90;;;;;;5040568;28;20466;-81
2023/09/10 20:10:57;;;;;;;11.67;10.73;;;25.00;99.90;;;;;;5044152;28;20450;-81
2023/09/10 20:13:36;;;;;;;11.67;10.63;;;24.90;99.90;;;;;;5043553;28;20515;-81
2023/09/10 20:16:29;;;;;;;59.23;53.47;;;24.80;99.90;;;;;;5041860;28;20500;-80
2023/09/10 20:19:09;;;;;;;96.63;86.37;;;24.70;99.90;;;;;;5042131;28;20450;-81
2023/09/10 20:21:58;;;;;;;26.10;23.50;;;24.70;99.90;;;;;;5042475;28;20530;-82
2023/09/10 20:24:44;;;;;;;13.10;11.70;;;24.20;99.90;;;;;;5039731;28;20489;-79
2023/09/10 20:27:45;;;;;;;;;;;;;;;;;;;;;
2023/09/10 20:30:25;;;;;;;11.00;10.00;;;24.40;99.90;;;;;;5043674;28;20434;-81
2023/09/10 20:33:02;;;;;;;10.87;10.00;;;24.40;99.90;;;;;;5047179;28;20479;-79
2023/09/10 20:36:07;;;;;;;11.30;10.20;;;24.30;99.90;;;;;;5045851;28;20469;-81
2023/09/10 20:38:42;;;;;;;11.43;10.27;;;24.50;99.90;;;;;;5045804;28;20450;-81
2023/09/10 20:41:29;;;;;;;12.00;10.80;;;24.20;99.90;;;;;;5046134;28;20537;-81
2023/09/10 20:44:07;;;;;;;11.50;10.30;;;24.20;99.90;;;;;;5044965;28;20466;-81
2023/09/10 20:46:43;;;;;;;11.83;10.83;;;24.10;99.90;;;;;;5043040;28;20446;-80
2023/09/10 20:49:30;;;;;;;12.50;11.33;;;23.90;99.90;;;;;;5043341;28;20450;-79
2023/09/10 20:52:09;;;;;;;10.50;9.50;;;23.90;99.90;;;;;;5041726;28;20443;-82
2023/09/10 20:54:54;;;;;;;11.67;10.67;;;23.90;99.90;;;;;;5041017;28;20787;-82
2023/09/10 20:57:53;;;;;;;10.97;10.07;;;23.80;99.90;;;;;;5041952;28;20485;-82
2023/09/10 21:00:39;;;;;;;10.97;10.03;;;23.80;99.90;;;;;;5036977;28;20460;-80
2023/09/10 21:03:30;;;;;;;11.30;10.40;;;23.70;99.90;;;;;;5049322;28;20446;-80
2023/09/10 21:06:19;;;;;;;11.37;10.37;;;23.60;99.90;;;;;;5054218;28;20481;-80
2023/09/10 21:09:26;;;;;;;12.20;11.10;;;23.60;99.90;;;;;;5089853;28;20449;-81
2023/09/10 21:12:24;;;;;;;11.20;10.20;;;23.50;99.90;;;;;;5063564;28;20448;-78
2023/09/10 21:18:22;;;;;;;;;;;;;;;;;;;;;
2023/09/10 21:23:47;;;;;;;11.97;10.97;;;23.30;99.90;;;;;;5090377;28;20840;-79
2023/09/10 21:26:25;;;;;;;10.87;9.90;;;23.20;99.90;;;;;;5088414;28;20502;-81
2023/09/10 21:29:33;;;;;;;;;;;;;;;;;;;;;
2023/09/10 21:32:11;;;;;;;12.03;11.03;;;23.00;99.90;;;;;;5086950;28;20453;-80
2023/09/10 21:35:22;;;;;;;11.17;10.37;;;23.00;99.90;;;;;;5088307;28;20523;-78
2023/09/10 21:38:01;;;;;;;12.17;10.50;;;22.90;99.90;;;;;;5085930;28;20489;-81
2023/09/10 21:47:16;;;;;;;11.73;10.63;;;22.90;99.90;;;;;;5043413;28;20460;-80
2023/09/10 21:50:14;;;;;;;11.10;10.30;;;22.80;99.90;;;;;;5084533;28;20815;-80
2023/09/10 21:59:53;;;;;;;11.53;10.40;;;22.50;99.90;;;;;;5082711;28;20740;-80
2023/09/10 22:02:58;;;;;;;10.87;9.97;;;22.50;99.90;;;;;;5084211;28;20472;-81
2023/09/10 22:06:09;;;;;;;13.67;10.90;;;22.20;99.90;;;;;;5087840;28;20465;-79
2023/09/10 22:12:08;;;;;;;11.67;10.57;;;22.30;99.90;;;;;;5084717;28;20436;-79
2023/09/10 22:15:02;;;;;;;11.53;10.60;;;22.30;99.90;;;;;;5091711;28;20498;-79
2023/09/10 22:24:04;;;;;;;11.70;10.80;;;22.10;99.90;;;;;;5091831;28;20453;-79
2023/09/10 22:32:40;;;;;;;11.10;10.07;;;22.10;99.90;;;;;;5090526;28;20492;-80
2023/09/10 22:35:47;;;;;;;13.00;11.83;;;22.00;99.90;;;;;;5095238;28;20467;-79
2023/09/10 22:38:49;;;;;;;11.33;10.33;;;22.00;99.90;;;;;;5094961;28;20503;-80
2023/09/10 22:44:52;;;;;;;;;;;;;;;;;;;;;
2023/09/10 22:47:46;;;;;;;11.77;10.77;;;21.80;99.90;;;;;;5083306;28;20440;-81
2023/09/10 22:50:56;;;;;;;11.47;10.50;;;21.70;99.90;;;;;;5093400;28;20474;-79
2023/09/10 22:53:35;;;;;;;11.20;10.20;;;21.70;99.90;;;;;;5089831;28;20441;-81
2023/09/10 22:56:20;;;;;;;11.47;10.37;;;21.60;99.90;;;;;;5091495;28;20441;-81
2023/09/10 22:59:09;;;;;;;10.93;10.03;;;21.60;99.90;;;;;;5090591;28;20447;-79